Time;durP1;ratioP1;P1;durP2;ratioP2;P2;SDS_P1;SDS_P2;PMS_P1;PMS_P2;Temp;Humidity;BMP_temperature;BMP_pressure;BME280_temperature;BME280_humidity;BME280_pressure;Samples;Min_cycle;Max_cycle;Signal;HPM_P1;HPM_P2
2022/12/10 00:00:14;;;;;;;;;;;-1.30;99.90;;;;;;5048420;28;19991;-76
2022/12/10 00:02:39;;;;;;;;;;;-2.20;99.90;;;;;;5043004;28;20274;-75
2022/12/10 00:05:05;;;;;;;;;;;-2.30;99.90;;;;;;5031604;28;19928;-77
2022/12/10 00:07:30;;;;;;;;;;;-2.30;99.90;;;;;;5032311;28;19921;-76
2022/12/10 00:09:56;;;;;;;;;;;-2.20;99.90;;;;;;5019806;28;19925;-76
2022/12/10 00:12:21;;;;;;;;;;;-2.00;99.90;;;;;;5043758;28;20012;-76
2022/12/10 00:14:47;;;;;;;;;;;-2.30;99.90;;;;;;5031173;28;20013;-76
2022/12/10 00:17:13;;;;;;;;;;;-2.30;99.90;;;;;;5032624;28;19955;-76
2022/12/10 00:19:38;;;;;;;;;;;-2.30;99.90;;;;;;5030443;28;19952;-75
2022/12/10 00:22:04;;;;;;;;;;;-2.30;99.90;;;;;;5046782;28;20035;-75
2022/12/10 00:24:29;;;;;;;;;;;-2.00;99.90;;;;;;5048888;28;20015;-75
2022/12/10 00:26:55;;;;;;;;;;;-2.40;99.90;;;;;;5027393;28;19932;-75
2022/12/10 00:29:20;;;;;;;;;;;-2.40;99.90;;;;;;5044026;28;19924;-76
2022/12/10 00:31:46;;;;;;;;;;;-2.40;99.90;;;;;;5048367;28;20011;-75
2022/12/10 00:34:12;;;;;;;;;;;-2.50;99.90;;;;;;5043820;28;19921;-75
2022/12/10 00:36:39;;;;;;;;;;;-2.50;99.90;;;;;;5035830;28;20337;-75
2022/12/10 00:39:05;;;;;;;;;;;-2.50;99.90;;;;;;5047468;28;20334;-75
2022/12/10 00:41:31;;;;;;;;;;;-2.50;99.90;;;;;;5052145;28;20313;-74
2022/12/10 00:43:56;;;;;;;;;;;-2.50;99.90;;;;;;5021420;28;19922;-75
2022/12/10 00:46:22;;;;;;;;;;;-2.50;99.90;;;;;;5018717;28;19921;-75
2022/12/10 00:48:48;;;;;;;;;;;-2.60;99.90;;;;;;5028600;28;20282;-74
2022/12/10 00:51:18;;;;;;;;;;;-2.50;99.90;;;;;;5014966;28;19921;-74
2022/12/10 00:53:44;;;;;;;;;;;-2.50;99.90;;;;;;5013405;28;20383;-75
2022/12/10 00:56:10;;;;;;;;;;;-2.50;99.90;;;;;;5007461;28;19972;-77
2022/12/10 00:58:37;;;;;;;;;;;-2.50;99.90;;;;;;5015475;28;20008;-75
2022/12/10 01:01:09;;;;;;;;;;;-2.50;99.90;;;;;;5032284;28;19921;-76
2022/12/10 01:03:35;;;;;;;;;;;-2.50;99.90;;;;;;5031739;28;20552;-76
2022/12/10 01:06:14;;;;;;;;;;;-2.50;99.90;;;;;;5028863;28;19928;-74
2022/12/10 01:08:40;;;;;;;;;;;-2.60;99.90;;;;;;5038129;28;19927;-75
2022/12/10 01:11:06;;;;;;;;;;;-2.60;99.90;;;;;;5035520;28;19921;-74
2022/12/10 01:13:31;;;;;;;;;;;-2.60;99.90;;;;;;5031474;28;19975;-75
2022/12/10 01:15:59;;;;;;;;;;;-2.70;99.90;;;;;;5029172;28;20004;-76
2022/12/10 01:18:25;;;;;;;;;;;-2.60;99.90;;;;;;5015370;28;19996;-75
2022/12/10 01:20:50;;;;;;;;;;;-2.60;99.90;;;;;;5032075;28;20019;-74
2022/12/10 01:23:16;;;;;;;;;;;-2.60;99.90;;;;;;5035780;28;19921;-75
2022/12/10 01:25:41;;;;;;;;;;;-2.60;99.90;;;;;;5032698;28;20118;-74
2022/12/10 01:28:07;;;;;;;;;;;-2.60;99.90;;;;;;5011765;28;19921;-74
2022/12/10 01:30:32;;;;;;;;;;;-2.70;99.90;;;;;;5032059;28;19921;-74
2022/12/10 01:32:58;;;;;;;;;;;-2.80;99.90;;;;;;5030991;28;19933;-75
2022/12/10 01:35:24;;;;;;;;;;;-2.70;99.90;;;;;;5030904;28;19925;-74
2022/12/10 01:37:49;;;;;;;;;;;-2.80;99.90;;;;;;4995009;28;20024;-74
2022/12/10 01:40:15;;;;;;;;;;;-2.70;99.90;;;;;;5011479;28;19928;-74
2022/12/10 01:42:40;;;;;;;;;;;-2.70;99.90;;;;;;5041141;28;19943;-76
2022/12/10 01:45:08;;;;;;;;;;;-2.80;99.90;;;;;;5052253;28;20351;-75
2022/12/10 01:47:33;;;;;;;;;;;-2.70;99.90;;;;;;5016999;28;20286;-76
2022/12/10 01:50:00;;;;;;;;;;;-2.70;99.90;;;;;;5035851;28;19921;-75
2022/12/10 01:52:26;;;;;;;;;;;-2.70;99.90;;;;;;5036986;28;20355;-75
2022/12/10 01:54:52;;;;;;;;;;;-2.80;99.90;;;;;;5033880;28;20378;-74
2022/12/10 01:57:20;;;;;;;;;;;-2.90;99.90;;;;;;5036051;28;19925;-74
2022/12/10 01:59:47;;;;;;;;;;;-2.90;99.90;;;;;;5046645;28;19921;-76
2022/12/10 02:02:32;;;;;;;;;;;-2.90;99.90;;;;;;5050288;28;20252;-75
2022/12/10 02:05:05;;;;;;;;;;;-2.90;99.90;;;;;;5029661;28;19925;-75
2022/12/10 02:07:39;;;;;;;;;;;-2.90;99.90;;;;;;5034659;28;19993;-75
2022/12/10 02:10:05;;;;;;;;;;;-2.90;99.90;;;;;;5048826;28;20370;-75
2022/12/10 02:12:40;;;;;;;;;;;-2.80;99.90;;;;;;5030651;28;19928;-75
2022/12/10 02:15:41;;;;;;;;;;;-2.80;99.90;;;;;;5031428;28;20331;-75
2022/12/10 02:18:25;;;;;;;;;;;-2.90;99.90;;;;;;4933825;29;20539;-75
2022/12/10 02:21:03;;;;;;;;;;;-2.80;99.90;;;;;;5027468;28;20382;-75
2022/12/10 02:23:32;;;;;;;;;;;-2.90;99.90;;;;;;5028884;28;19952;-76
2022/12/10 02:25:57;;;;;;;;;;;-2.90;99.90;;;;;;5051261;28;19927;-75
2022/12/10 02:28:30;;;;;;;;;;;-2.90;99.90;;;;;;5033935;28;19995;-77
2022/12/10 02:30:56;;;;;;;;;;;-2.80;99.90;;;;;;5046462;28;19921;-75
2022/12/10 02:33:22;;;;;;;;;;;-2.90;99.90;;;;;;5015059;28;19924;-75
2022/12/10 02:35:50;;;;;;;;;;;-2.90;99.90;;;;;;5008826;28;20012;-75
2022/12/10 02:38:30;;;;;;;;;;;-2.90;99.90;;;;;;5035014;28;19927;-76
2022/12/10 02:41:00;;;;;;;;;;;-2.90;99.90;;;;;;5032407;28;19932;-75
2022/12/10 02:43:27;;;;;;;;;;;-2.80;99.90;;;;;;5034074;28;19921;-74
2022/12/10 02:45:54;;;;;;;;;;;-2.80;99.90;;;;;;5013371;28;19977;-77
2022/12/10 02:48:20;;;;;;;;;;;-2.80;99.90;;;;;;5014525;28;19929;-74
2022/12/10 02:50:45;;;;;;;;;;;-2.80;99.90;;;;;;5030363;28;20352;-75
2022/12/10 02:53:11;;;;;;;;;;;-2.80;99.90;;;;;;5025472;28;20173;-75
2022/12/10 02:55:57;;;;;;;;;;;-2.90;99.90;;;;;;5030620;28;19928;-75
2022/12/10 02:58:45;;;;;;;;;;;-2.80;99.90;;;;;;5006415;28;19927;-75
2022/12/10 03:01:14;;;;;;;;;;;-2.90;99.90;;;;;;5029315;28;19928;-75
2022/12/10 03:03:52;;;;;;;;;;;-2.80;99.90;;;;;;5026566;28;20023;-75
2022/12/10 03:06:22;;;;;;;;;;;-2.80;99.90;;;;;;4999039;28;20348;-75
2022/12/10 03:09:02;;;;;;;;;;;-2.90;99.90;;;;;;5023195;28;19928;-75
2022/12/10 03:11:28;;;;;;;;;;;-2.90;99.90;;;;;;5010155;28;19921;-75
2022/12/10 03:14:02;;;;;;;;;;;-2.80;99.90;;;;;;5009723;28;19925;-75
2022/12/10 03:16:53;;;;;;;;;;;-2.70;99.90;;;;;;5009587;28;20610;-76
2022/12/10 03:19:21;;;;;;;;;;;-2.70;99.90;;;;;;5026336;28;19925;-76
2022/12/10 03:21:49;;;;;;;;;;;-2.70;99.90;;;;;;5029502;28;19920;-75
2022/12/10 03:24:16;;;;;;;;;;;-2.60;99.90;;;;;;5037742;28;20384;-76
2022/12/10 03:26:43;;;;;;;;;;;-2.60;99.90;;;;;;5022713;28;20430;-76
2022/12/10 03:29:11;;;;;;;;;;;-2.50;99.90;;;;;;5010519;28;19933;-76
2022/12/10 03:31:37;;;;;;;;;;;-2.50;99.90;;;;;;5012474;28;20279;-75
2022/12/10 03:34:04;;;;;;;;;;;-2.50;99.90;;;;;;5009845;28;19925;-76
2022/12/10 03:36:30;;;;;;;;;;;-2.40;99.90;;;;;;4999839;28;19925;-76
2022/12/10 03:38:56;;;;;;;;;;;-1.40;99.90;;;;;;5027651;28;19929;-77
2022/12/10 03:41:22;;;;;;;;;;;-2.50;99.90;;;;;;5030207;28;19939;-75
2022/12/10 03:43:52;;;;;;;;;;;-2.50;99.90;;;;;;5010598;28;20008;-74
2022/12/10 03:46:18;;;;;;;;;;;-2.40;99.90;;;;;;5018993;28;19925;-77
2022/12/10 03:48:43;;;;;;;;;;;-2.40;99.90;;;;;;5023434;28;19925;-75
2022/12/10 03:51:09;;;;;;;;;;;-2.40;99.90;;;;;;5030727;28;19931;-76
2022/12/10 03:53:34;;;;;;;;;;;-2.40;99.90;;;;;;5025217;28;19975;-76
2022/12/10 03:56:00;;;;;;;;;;;-2.40;99.90;;;;;;5029907;28;19925;-76
2022/12/10 03:58:25;;;;;;;;;;;-2.40;99.90;;;;;;5012211;28;19929;-76
2022/12/10 04:00:51;;;;;;;;;;;-2.40;99.90;;;;;;5011747;28;19925;-78
2022/12/10 04:03:16;;;;;;;;;;;-1.40;99.90;;;;;;5023180;28;20430;-76
2022/12/10 04:05:42;;;;;;;;;;;-2.30;99.90;;;;;;5028876;28;19929;-76
2022/12/10 04:08:07;;;;;;;;;;;-2.30;99.90;;;;;;5012866;28;20020;-75
2022/12/10 04:10:36;;;;;;;;;;;-2.30;99.90;;;;;;5029945;28;19929;-75
2022/12/10 04:18:30;;;;;;;;;;;-2.20;99.90;;;;;;5019197;28;19929;-76
2022/12/10 04:29:08;;;;;;;;;;;-2.10;99.90;;;;;;5012119;28;20261;-78
2022/12/10 04:31:34;;;;;;;;;;;-2.10;99.90;;;;;;5025334;28;19925;-76
2022/12/10 04:34:00;;;;;;;;;;;-2.10;99.90;;;;;;5032271;28;19981;-75
2022/12/10 04:36:25;;;;;;;;;;;-2.10;99.90;;;;;;5014425;28;19933;-76
2022/12/10 04:38:51;;;;;;;;;;;-1.30;99.90;;;;;;5007987;28;20430;-75
2022/12/10 04:41:16;;;;;;;;;;;-1.20;99.90;;;;;;5030966;28;19972;-76
2022/12/10 04:43:42;;;;;;;;;;;-2.00;99.90;;;;;;5043327;28;19936;-76
2022/12/10 04:46:09;;;;;;;;;;;-2.00;99.90;;;;;;5046943;28;19932;-79
2022/12/10 04:48:34;;;;;;;;;;;-2.10;99.90;;;;;;5025905;28;19951;-76
2022/12/10 04:51:00;;;;;;;;;;;-2.00;99.90;;;;;;5035088;28;20367;-76
2022/12/10 04:53:25;;;;;;;;;;;-2.10;99.90;;;;;;5051131;28;19979;-76
2022/12/10 04:55:51;;;;;;;;;;;-2.00;99.90;;;;;;5052013;28;19929;-76
2022/12/10 04:58:16;;;;;;;;;;;-2.00;99.90;;;;;;5036391;28;19987;-76
2022/12/10 05:00:42;;;;;;;;;;;-2.00;99.90;;;;;;5052195;28;19929;-76
2022/12/10 05:03:07;;;;;;;;;;;-2.00;99.90;;;;;;5051391;28;19925;-76
2022/12/10 05:05:34;;;;;;;;;;;-2.00;99.90;;;;;;5050125;28;19925;-76
2022/12/10 05:07:59;;;;;;;;;;;-2.00;99.90;;;;;;5027052;28;19978;-76
2022/12/10 05:10:25;;;;;;;;;;;-2.10;99.90;;;;;;5025328;28;20299;-76
2022/12/10 05:12:50;;;;;;;;;;;-2.10;99.90;;;;;;5051105;28;19979;-76
2022/12/10 05:15:16;;;;;;;;;;;-2.00;99.90;;;;;;5030675;28;19928;-76
2022/12/10 05:17:41;;;;;;;;;;;-2.00;99.90;;;;;;5016666;28;19955;-76
2022/12/10 05:20:07;;;;;;;;;;;-2.10;99.90;;;;;;5031723;28;20020;-76
2022/12/10 05:25:16;;;;;;;;;;;-1.10;99.90;;;;;;5049002;28;20366;-76
2022/12/10 05:27:42;;;;;;;;;;;-2.10;99.90;;;;;;5035883;28;20023;-76
2022/12/10 05:30:09;;;;;;;;;;;-2.10;99.90;;;;;;5051471;28;19928;-76
2022/12/10 05:32:35;;;;;;;;;;;-2.20;99.90;;;;;;5051516;28;19924;-75
2022/12/10 05:35:00;;;;;;;;;;;-2.10;99.90;;;;;;5050109;28;19929;-76
2022/12/10 05:37:26;;;;;;;;;;;-2.10;99.90;;;;;;5021814;28;19928;-76
2022/12/10 05:39:52;;;;;;;;;;;-2.20;99.90;;;;;;5046454;28;19928;-77
2022/12/10 05:42:17;;;;;;;;;;;-2.10;99.90;;;;;;5047997;28;19932;-76
2022/12/10 05:44:43;;;;;;;;;;;-2.10;99.90;;;;;;5051247;28;19925;-75
2022/12/10 05:47:08;;;;;;;;;;;-2.20;99.90;;;;;;5013324;28;19952;-77
2022/12/10 05:49:34;;;;;;;;;;;-2.20;99.90;;;;;;5031566;28;19995;-76
2022/12/10 05:52:00;;;;;;;;;;;-2.10;99.90;;;;;;5034202;28;19948;-76
2022/12/10 05:54:25;;;;;;;;;;;-2.10;99.90;;;;;;5050908;28;19925;-76
2022/12/10 05:56:51;;;;;;;;;;;-2.10;99.90;;;;;;5029823;28;19929;-76
2022/12/10 05:59:16;;;;;;;;;;;-2.10;99.90;;;;;;5033727;28;20008;-78
2022/12/10 06:01:42;;;;;;;;;;;-2.20;99.90;;;;;;5030857;28;20002;-76
2022/12/10 06:04:08;;;;;;;;;;;-2.10;99.90;;;;;;5031072;28;19994;-76
2022/12/10 06:06:35;;;;;;;;;;;-1.90;99.90;;;;;;5017714;28;19929;-77
2022/12/10 06:09:01;;;;;;;;;;;-1.60;99.90;;;;;;5041944;28;19928;-76
2022/12/10 06:11:27;;;;;;;;;;;-2.10;99.90;;;;;;5050466;28;20055;-76
2022/12/10 06:13:54;;;;;;;;;;;-2.10;99.90;;;;;;5050021;28;19929;-76
2022/12/10 06:16:20;;;;;;;;;;;-2.10;99.90;;;;;;5040441;28;20023;-77
2022/12/10 06:18:45;;;;;;;;;;;-2.10;99.90;;;;;;5039967;28;20008;-76
2022/12/10 06:21:13;;;;;;;;;;;-2.10;99.90;;;;;;5031205;28;19925;-76
2022/12/10 06:23:39;;;;;;;;;;;-2.10;99.90;;;;;;5034569;28;20063;-75
2022/12/10 06:26:09;;;;;;;;;;;-2.10;99.90;;;;;;5040370;28;19951;-79
2022/12/10 06:28:35;;;;;;;;;;;-1.60;99.90;;;;;;5034216;28;19931;-76
2022/12/10 06:31:01;;;;;;;;;;;-2.10;99.90;;;;;;5034319;28;20257;-76
2022/12/10 06:33:27;;;;;;;;;;;-2.00;99.90;;;;;;5060582;28;19929;-76
2022/12/10 06:35:52;;;;;;;;;;;-1.80;99.90;;;;;;5023472;28;19925;-76
2022/12/10 06:38:18;;;;;;;;;;;-2.00;99.90;;;;;;5029962;28;20026;-76
2022/12/10 06:40:43;;;;;;;;;;;-2.00;99.90;;;;;;5045192;28;19936;-76
2022/12/10 06:43:09;;;;;;;;;;;-2.10;99.90;;;;;;5035029;28;19925;-76
2022/12/10 06:45:39;;;;;;;;;;;-2.00;99.90;;;;;;5029905;28;20442;-76
2022/12/10 06:48:04;;;;;;;;;;;-2.00;99.90;;;;;;5014651;28;19936;-76
2022/12/10 06:50:30;;;;;;;;;;;-2.10;99.90;;;;;;5040994;28;19929;-76
2022/12/10 06:52:55;;;;;;;;;;;-2.10;99.90;;;;;;5059819;28;19978;-77
2022/12/10 06:55:21;;;;;;;;;;;-2.10;99.90;;;;;;5051874;28;19936;-76
2022/12/10 06:57:50;;;;;;;;;;;-2.10;99.90;;;;;;5053597;28;19931;-76
2022/12/10 07:00:16;;;;;;;;;;;-2.10;99.90;;;;;;5070160;28;20390;-76
2022/12/10 07:02:41;;;;;;;;;;;-2.10;99.90;;;;;;5056340;28;19924;-76
2022/12/10 07:05:07;;;;;;;;;;;-2.10;99.90;;;;;;5049307;28;19928;-76
2022/12/10 07:07:32;;;;;;;;;;;-2.10;99.90;;;;;;5026727;28;20019;-77
2022/12/10 07:09:58;;;;;;;;;;;-2.10;99.90;;;;;;5045973;28;20271;-76
2022/12/10 07:12:23;;;;;;;;;;;-2.10;99.90;;;;;;5048806;28;19947;-76
2022/12/10 07:14:49;;;;;;;;;;;-2.10;99.90;;;;;;5050562;28;19931;-76
2022/12/10 07:17:14;;;;;;;;;;;-2.20;99.90;;;;;;5033338;28;19967;-77
2022/12/10 07:19:40;;;;;;;;;;;-2.10;99.90;;;;;;5049274;28;19975;-77
2022/12/10 07:22:06;;;;;;;;;;;-2.10;99.90;;;;;;5035953;28;19924;-77
2022/12/10 07:24:31;;;;;;;;;;;-2.10;99.90;;;;;;5056180;28;19929;-76
2022/12/10 07:26:57;;;;;;;;;;;-2.10;99.90;;;;;;5024946;28;19933;-76
2022/12/10 07:29:22;;;;;;;;;;;-2.20;99.90;;;;;;5029706;28;19924;-77
2022/12/10 07:31:48;;;;;;;;;;;-2.20;99.90;;;;;;5029239;28;19940;-75
2022/12/10 07:34:14;;;;;;;;;;;-2.20;99.90;;;;;;5060576;28;20282;-77
2022/12/10 07:36:40;;;;;;;;;;;-2.20;99.90;;;;;;5027665;28;19964;-76
2022/12/10 07:39:06;;;;;;;;;;;-2.20;99.90;;;;;;5042364;28;20390;-77
2022/12/10 07:41:32;;;;;;;;;;;-2.20;99.90;;;;;;5047516;28;19925;-76
2022/12/10 07:43:58;;;;;;;;;;;-2.20;99.90;;;;;;5033493;28;20031;-77
2022/12/10 07:46:30;;;;;;;;;;;-2.20;99.90;;;;;;5034853;28;19929;-77
2022/12/10 07:48:56;;;;;;;;;;;-2.20;99.90;;;;;;5047846;28;19929;-76
2022/12/10 07:51:22;;;;;;;;;;;-2.20;99.90;;;;;;5049379;28;19929;-76
2022/12/10 07:53:50;;;;;;;;;;;-2.20;99.90;;;;;;5048991;28;19972;-76
2022/12/10 07:56:16;;;;;;;;;;;-2.10;99.90;;;;;;5037360;28;20358;-78
2022/12/10 07:58:45;;;;;;;;;;;-2.20;99.90;;;;;;5046262;28;19932;-76
2022/12/10 08:01:12;;;;;;;;;;;-2.20;99.90;;;;;;5051894;28;19933;-77
2022/12/10 08:03:37;;;;;;;;;;;-2.20;99.90;;;;;;5049380;28;20126;-76
2022/12/10 08:06:04;;;;;;;;;;;-2.20;99.90;;;;;;5051113;28;19975;-77
2022/12/10 08:08:29;;;;;;;;;;;-2.20;99.90;;;;;;5024976;28;19933;-78
2022/12/10 08:10:59;;;;;;;;;;;-2.30;99.90;;;;;;5050203;28;19952;-79
2022/12/10 08:13:24;;;;;;;;;;;-2.30;99.90;;;;;;5050480;28;20360;-76
2022/12/10 08:15:50;;;;;;;;;;;-2.20;99.90;;;;;;5050325;28;19978;-75
2022/12/10 08:18:15;;;;;;;;;;;-2.20;99.90;;;;;;4997321;28;19933;-76
2022/12/10 08:20:41;;;;;;;;;;;-2.30;99.90;;;;;;5051089;28;20007;-77
2022/12/10 08:23:07;;;;;;;;;;;-2.30;99.90;;;;;;5046980;28;20127;-76
2022/12/10 08:25:32;;;;;;;;;;;-2.30;99.90;;;;;;5046858;28;20353;-76
2022/12/10 08:27:59;;;;;;;;;;;-2.20;99.90;;;;;;5035278;28;19983;-76
2022/12/10 08:30:25;;;;;;;;;;;-2.20;99.90;;;;;;5043121;28;19935;-76
2022/12/10 08:32:50;;;;;;;;;;;-2.30;99.90;;;;;;5051067;28;20241;-76
2022/12/10 08:35:16;;;;;;;;;;;-2.20;99.90;;;;;;5051719;28;19963;-75
2022/12/10 08:37:41;;;;;;;;;;;-2.20;99.90;;;;;;5035848;28;19928;-76
2022/12/10 08:40:08;;;;;;;;;;;-2.20;99.90;;;;;;5047210;28;19929;-77
2022/12/10 08:42:33;;;;;;;;;;;-2.20;99.90;;;;;;5047045;28;19935;-76
2022/12/10 08:44:59;;;;;;;;;;;-2.20;99.90;;;;;;5050865;28;19933;-76
2022/12/10 08:47:24;;;;;;;;;;;-2.30;99.90;;;;;;5035265;28;20371;-78
2022/12/10 08:49:50;;;;;;;;;;;-2.20;99.90;;;;;;5047504;28;19932;-79
2022/12/10 08:52:15;;;;;;;;;;;-2.20;99.90;;;;;;5050434;28;19955;-76
2022/12/10 08:54:43;;;;;;;;;;;-2.10;99.90;;;;;;5046540;28;20401;-76
2022/12/10 08:57:08;;;;;;;;;;;-2.10;99.90;;;;;;5022371;28;19975;-76
2022/12/10 08:59:34;;;;;;;;;;;-2.20;99.90;;;;;;5044744;28;19928;-76
2022/12/10 09:02:00;;;;;;;;;;;-2.20;99.90;;;;;;5037926;28;19929;-76
2022/12/10 09:04:25;;;;;;;;;;;-2.20;99.90;;;;;;5048337;28;19967;-76
2022/12/10 09:06:52;;;;;;;;;;;-1.90;99.90;;;;;;5030917;28;19980;-76
2022/12/10 09:09:17;;;;;;;;;;;-2.10;99.90;;;;;;5043244;28;19933;-76
2022/12/10 09:11:45;;;;;;;;;;;-2.00;99.90;;;;;;5030113;28;20375;-77
2022/12/10 09:14:11;;;;;;;;;;;-2.00;99.90;;;;;;5029420;28;19929;-76
2022/12/10 09:16:38;;;;;;;;;;;-2.00;99.90;;;;;;5036180;28;19929;-76
2022/12/10 09:19:05;;;;;;;;;;;-2.00;99.90;;;;;;5036957;28;19936;-76
2022/12/10 09:21:31;;;;;;;;;;;-1.80;99.90;;;;;;5027159;28;20348;-77
2022/12/10 09:23:57;;;;;;;;;;;-1.90;99.90;;;;;;5030730;28;20437;-75
2022/12/10 09:26:23;;;;;;;;;;;-1.90;99.90;;;;;;5018450;28;19933;-76
2022/12/10 09:28:49;;;;;;;;;;;-1.90;99.90;;;;;;5026817;28;19983;-76
2022/12/10 09:31:16;;;;;;;;;;;-2.00;99.90;;;;;;5029899;28;20398;-76
2022/12/10 09:33:41;;;;;;;;;;;-1.90;99.90;;;;;;5039636;28;19929;-76
2022/12/10 09:36:08;;;;;;;;;;;-1.90;99.90;;;;;;5037134;28;19935;-79
2022/12/10 09:38:35;;;;;;;;;;;-1.80;99.90;;;;;;5021923;28;19929;-77
2022/12/10 09:41:00;;;;;;;;;;;-2.00;99.90;;;;;;5045392;28;20063;-75
2022/12/10 09:43:37;;;;;;;;;;;-1.80;99.90;;;;;;5042955;28;19999;-76
2022/12/10 09:46:23;;;;;;;;;;;-1.80;99.90;;;;;;5046999;28;19939;-76
2022/12/10 09:49:05;;;;;;;;;;;-1.80;99.90;;;;;;5043618;28;19939;-76
2022/12/10 09:51:34;;;;;;;;;;;-1.80;99.90;;;;;;5048552;28;19935;-76
2022/12/10 09:54:00;;;;;;;;;;;-1.80;99.90;;;;;;5042285;28;20276;-76
2022/12/10 09:56:28;;;;;;;;;;;-1.80;99.90;;;;;;5017373;28;20136;-76
2022/12/10 09:58:53;;;;;;;;;;;-1.90;99.90;;;;;;5043646;28;20016;-76
2022/12/10 10:01:22;;;;;;;;;;;-1.80;99.90;;;;;;5030719;28;20019;-76
2022/12/10 10:03:48;;;;;;;;;;;-1.90;99.90;;;;;;5047582;28;19929;-76
2022/12/10 10:06:14;;;;;;;;;;;-1.90;99.90;;;;;;5034688;28;19936;-77
2022/12/10 10:08:45;;;;;;;;;;;-1.90;99.90;;;;;;5039796;28;20370;-76
2022/12/10 10:11:16;;;;;;;;;;;-1.90;99.90;;;;;;5033554;28;19925;-76
2022/12/10 10:13:46;;;;;;;;;;;-1.90;99.90;;;;;;5030519;28;19926;-75
2022/12/10 10:16:30;;;;;;;;;;;-1.90;99.90;;;;;;5017300;28;19926;-79
2022/12/10 10:18:58;;;;;;;;;;;-1.80;99.90;;;;;;5028481;28;19925;-76
2022/12/10 10:21:29;;;;;;;;;;;-1.80;99.90;;;;;;5030986;28;20004;-80
2022/12/10 10:23:56;;;;;;;;;;;-1.80;99.90;;;;;;5029229;28;19925;-76
2022/12/10 10:26:23;;;;;;;;;;;-1.80;99.90;;;;;;5019663;28;19940;-76
2022/12/10 10:28:50;;;;;;;;;;;-1.10;99.90;;;;;;5022941;28;19956;-76
2022/12/10 10:31:21;;;;;;;;;;;-1.70;99.90;;;;;;5032407;28;20383;-77
2022/12/10 10:33:48;;;;;;;;;;;-1.80;99.90;;;;;;5018139;28;19925;-76
2022/12/10 10:36:14;;;;;;;;;;;-1.70;99.90;;;;;;5016860;28;19926;-76
2022/12/10 10:38:46;;;;;;;;;;;-1.60;99.90;;;;;;5022639;28;19940;-76
2022/12/10 10:41:13;;;;;;;;;;;-1.60;99.90;;;;;;5029485;28;19925;-76
2022/12/10 10:43:41;;;;;;;;;;;-1.60;99.90;;;;;;5031404;28;20341;-76
2022/12/10 10:46:12;;;;;;;;;;;-1.50;99.90;;;;;;5045427;28;19972;-79
2022/12/10 10:48:38;;;;;;;;;;;-1.50;99.90;;;;;;5019233;28;20751;-76
2022/12/10 10:51:15;;;;;;;;;;;-0.70;99.90;;;;;;5030885;28;19925;-76
2022/12/10 10:53:45;;;;;;;;;;;-1.40;99.90;;;;;;5042914;28;19963;-76
2022/12/10 10:56:29;;;;;;;;;;;-1.40;99.90;;;;;;5042782;28;19972;-76
2022/12/10 10:58:58;;;;;;;;;;;-1.40;99.90;;;;;;5041712;28;19925;-76
2022/12/10 11:01:25;;;;;;;;;;;-1.50;99.90;;;;;;5012212;28;19930;-76
2022/12/10 11:03:55;;;;;;;;;;;-1.50;99.90;;;;;;5027237;28;19936;-77
2022/12/10 11:06:21;;;;;;;;;;;-1.50;99.90;;;;;;5020168;28;20425;-76
2022/12/10 11:08:48;;;;;;;;;;;-1.40;99.90;;;;;;5020074;28;19979;-76
2022/12/10 11:11:13;;;;;;;;;;;-1.50;99.90;;;;;;5025966;28;20446;-76
2022/12/10 11:13:39;;;;;;;;;;;-1.40;99.90;;;;;;5022745;28;19925;-76
2022/12/10 11:16:18;;;;;;;;;;;-1.40;99.90;;;;;;5026172;28;19934;-76
2022/12/10 11:18:53;;;;;;;;;;;-1.60;99.90;;;;;;5014970;28;20000;-77
2022/12/10 11:21:21;;;;;;;;;;;-1.50;99.90;;;;;;5025344;28;19929;-76
2022/12/10 11:23:56;;;;;;;;;;;-1.50;99.90;;;;;;5022525;28;19925;-78
2022/12/10 11:26:22;;;;;;;;;;;-1.40;99.90;;;;;;4995939;28;19925;-76
2022/12/10 11:28:58;;;;;;;;;;;-1.40;99.90;;;;;;5002909;28;20016;-75
2022/12/10 11:31:26;;;;;;;;;;;-1.30;99.90;;;;;;5020019;28;19941;-76
2022/12/10 11:34:01;;;;;;;;;;;-1.30;99.90;;;;;;5011526;28;19925;-77
2022/12/10 11:36:46;;;;;;;;;;;-1.30;99.90;;;;;;5001475;28;20390;-76
2022/12/10 11:39:30;;;;;;;;;;;-1.30;99.90;;;;;;5015187;28;19925;-77
2022/12/10 11:42:13;;;;;;;;;;;-1.30;99.90;;;;;;5014193;28;19932;-76
2022/12/10 11:44:47;;;;;;;;;;;-1.30;99.90;;;;;;5030972;28;19936;-76
2022/12/10 11:47:28;;;;;;;;;;;-1.30;99.90;;;;;;5013577;28;20378;-76
2022/12/10 11:50:00;;;;;;;;;;;-1.20;99.90;;;;;;5030962;28;19929;-76
2022/12/10 11:52:29;;;;;;;;;;;-1.20;99.90;;;;;;5048010;28;19991;-75
2022/12/10 11:55:03;;;;;;;;;;;-1.30;99.90;;;;;;5034708;28;19925;-76
2022/12/10 11:57:51;;;;;;;;;;;-1.20;99.90;;;;;;5022116;28;19925;-79
2022/12/10 12:00:19;;;;;;;;;;;-1.20;99.90;;;;;;5040631;28;20189;-76
2022/12/10 12:02:45;;;;;;;;;;;-1.20;99.90;;;;;;5040122;28;19979;-76
2022/12/10 12:05:10;;;;;;;;;;;-1.00;99.90;;;;;;5040933;28;19925;-76
2022/12/10 12:07:56;;;;;;;;;;;-1.20;99.90;;;;;;5024448;28;19970;-77
2022/12/10 12:10:40;;;;;;;;;;;-1.20;99.90;;;;;;5043407;28;19938;-75
2022/12/10 12:13:09;;;;;;;;;;;-1.20;99.90;;;;;;5039568;28;19932;-76
2022/12/10 12:15:38;;;;;;;;;;;-1.10;99.90;;;;;;5040396;28;19978;-76
2022/12/10 12:18:18;;;;;;;;;;;-1.10;99.90;;;;;;5021476;28;19933;-76
2022/12/10 12:20:46;;;;;;;;;;;-1.00;99.90;;;;;;5042442;28;19933;-76
2022/12/10 12:23:21;;;;;;;;;;;-1.00;99.90;;;;;;5039111;28;19935;-77
2022/12/10 12:25:49;;;;;;;;;;;-1.10;99.90;;;;;;5038325;28;20279;-76
2022/12/10 12:28:23;;;;;;;;;;;-1.10;99.90;;;;;;5022516;28;19983;-76
2022/12/10 12:30:52;;;;;;;;;;;-1.20;99.90;;;;;;5041920;28;20019;-76
2022/12/10 12:33:24;;;;;;;;;;;-1.10;99.90;;;;;;5043644;28;20023;-77
2022/12/10 12:35:52;;;;;;;;;;;-1.10;99.90;;;;;;5044888;28;19979;-77
2022/12/10 12:38:50;;;;;;;;;;;-1.10;99.90;;;;;;5019259;28;20291;-76
2022/12/10 12:41:29;;;;;;;;;;;-1.10;99.90;;;;;;5014685;28;19925;-75
2022/12/10 12:44:15;;;;;;;;;;;-1.10;99.90;;;;;;5049305;28;19932;-76
2022/12/10 12:46:45;;;;;;;;;;;-1.00;99.90;;;;;;5036857;28;19972;-77
2022/12/10 12:49:20;;;;;;;;;;;-1.00;99.90;;;;;;5050399;28;20015;-76
2022/12/10 12:51:50;;;;;;;;;;;-1.10;99.90;;;;;;5049479;28;19929;-76
2022/12/10 12:54:15;;;;;;;;;;;-1.00;99.90;;;;;;5069216;28;19924;-77
2022/12/10 12:57:01;;;;;;;;;;;-1.00;99.90;;;;;;5058345;28;20338;-76
2022/12/10 12:59:36;;;;;;;;;;;-1.00;99.90;;;;;;5042461;28;20302;-76
2022/12/10 13:02:15;;;;;;;;;;;-1.00;99.90;;;;;;5052285;28;19935;-75
2022/12/10 13:04:40;;;;;;;;;;;-1.00;99.90;;;;;;5051987;28;19925;-76
2022/12/10 13:07:15;;;;;;;;;;;-1.00;99.90;;;;;;5037083;28;19925;-76
2022/12/10 13:09:48;;;;;;;;;;;-1.00;99.90;;;;;;5058134;28;19929;-75
2022/12/10 13:12:14;;;;;;;;;;;-0.90;99.90;;;;;;5050555;28;20418;-77
2022/12/10 13:14:54;;;;;;;;;;;-1.00;99.90;;;;;;5048528;28;19964;-77
2022/12/10 13:17:34;;;;;;;;;;;-0.40;99.90;;;;;;5035518;28;20306;-75
2022/12/10 13:20:18;;;;;;;;;;;-0.90;99.90;;;;;;5049800;28;19933;-76
2022/12/10 13:22:54;;;;;;;;;;;-1.00;99.90;;;;;;5040880;28;19932;-76
2022/12/10 13:25:36;;;;;;;;;;;-0.90;99.90;;;;;;5035930;28;20283;-76
2022/12/10 13:28:21;;;;;;;;;;;-0.90;99.90;;;;;;5005242;28;19932;-79
2022/12/10 13:31:06;;;;;;;;;;;-0.80;99.90;;;;;;5038030;28;19933;-77
2022/12/10 13:33:46;;;;;;;;;;;-0.80;99.90;;;;;;5035220;28;19924;-77
2022/12/10 13:36:12;;;;;;;;;;;-0.90;99.90;;;;;;5030799;28;19932;-76
2022/12/10 13:38:53;;;;;;;;;;;-0.90;99.90;;;;;;5032476;28;19925;-76
2022/12/10 13:44:23;;;;;;;;;;;-0.90;99.90;;;;;;5024007;28;20485;-76
2022/12/10 13:46:52;;;;;;;;;;;-0.90;99.90;;;;;;5010077;28;19936;-76
2022/12/10 13:49:22;;;;;;;;;;;-0.90;99.90;;;;;;5020252;28;19937;-76
2022/12/10 13:51:48;;;;;;;;;;;-0.10;99.90;;;;;;5021607;28;20387;-75
2022/12/10 13:54:13;;;;;;;;;;;-0.80;99.90;;;;;;5021299;28;19926;-77
2022/12/10 13:56:49;;;;;;;;;;;-0.90;99.90;;;;;;5006773;28;20382;-75
2022/12/10 13:59:35;;;;;;;;;;;-0.80;99.90;;;;;;5021475;28;19925;-76
2022/12/10 14:02:19;;;;;;;;;;;-0.90;99.90;;;;;;5022476;28;20363;-76
2022/12/10 14:04:44;;;;;;;;;;;-0.90;99.90;;;;;;5025432;28;20346;-76
2022/12/10 14:07:11;;;;;;;;;;;-0.90;99.90;;;;;;5014090;28;19929;-76
2022/12/10 14:09:42;;;;;;;;;;;-0.90;99.90;;;;;;5030884;28;19932;-77
2022/12/10 14:12:13;;;;;;;;;;;-0.80;99.90;;;;;;5030622;28;20272;-76
2022/12/10 14:14:41;;;;;;;;;;;-0.90;99.90;;;;;;5023583;28;19968;-76
2022/12/10 14:17:21;;;;;;;;;;;-0.90;99.90;;;;;;4995299;28;19932;-76
2022/12/10 14:19:48;;;;;;;;;;;-1.30;99.90;;;;;;4993302;28;20387;-76
2022/12/10 14:22:30;;;;;;;;;;;0.20;99.90;;;;;;5016869;28;19925;-77
2022/12/10 14:24:58;;;;;;;;;;;-0.80;99.90;;;;;;5022445;28;20298;-76
2022/12/10 14:27:25;;;;;;;;;;;-0.70;99.90;;;;;;5013907;28;19925;-76
2022/12/10 14:29:51;;;;;;;;;;;-0.80;99.90;;;;;;5030768;28;20384;-77
2022/12/10 14:32:19;;;;;;;;;;;-0.70;99.90;;;;;;5018540;28;19952;-75
2022/12/10 14:34:54;;;;;;;;;;;-0.80;99.90;;;;;;5010978;28;19960;-75
2022/12/10 14:37:23;;;;;;;;;;;-0.70;99.90;;;;;;5005207;28;20387;-76
2022/12/10 14:39:48;;;;;;;;;;;-0.80;99.90;;;;;;4992961;28;19929;-76
2022/12/10 14:42:15;;;;;;;;;;;-0.70;99.90;;;;;;5017618;28;19933;-76
2022/12/10 14:44:41;;;;;;;;;;;-0.80;99.90;;;;;;5024455;28;19932;-77